sensor_id;sensor_type;location;lat;lon;timestamp;P1;durP1;ratioP1;P2;durP2;ratioP2
26391;SDS011;14572;43.120;1.178;2022-10-31T00:01:58;15.70;;;6.80;;
26391;SDS011;14572;43.120;1.178;2022-10-31T00:04:25;12.43;;;6.68;;
26391;SDS011;14572;43.120;1.178;2022-10-31T00:06:52;14.85;;;6.53;;
26391;SDS011;14572;43.120;1.178;2022-10-31T00:09:19;11.07;;;6.60;;
26391;SDS011;14572;43.120;1.178;2022-10-31T00:11:48;12.48;;;6.05;;
26391;SDS011;14572;43.120;1.178;2022-10-31T00:14:15;13.45;;;6.45;;
26391;SDS011;14572;43.120;1.178;2022-10-31T00:16:42;11.73;;;6.18;;
26391;SDS011;14572;43.120;1.178;2022-10-31T00:19:09;11.75;;;6.28;;
26391;SDS011;14572;43.120;1.178;2022-10-31T00:21:36;14.63;;;6.38;;
26391;SDS011;14572;43.120;1.178;2022-10-31T00:24:03;16.67;;;6.13;;
26391;SDS011;14572;43.120;1.178;2022-10-31T00:26:32;13.13;;;7.00;;
26391;SDS011;14572;43.120;1.178;2022-10-31T00:29:01;13.82;;;6.90;;
26391;SDS011;14572;43.120;1.178;2022-10-31T00:31:31;14.90;;;6.60;;
26391;SDS011;14572;43.120;1.178;2022-10-31T00:34:01;10.05;;;6.05;;
26391;SDS011;14572;43.120;1.178;2022-10-31T00:36:29;13.32;;;6.07;;
26391;SDS011;14572;43.120;1.178;2022-10-31T00:39:00;12.00;;;5.85;;
26391;SDS011;14572;43.120;1.178;2022-10-31T00:41:28;11.15;;;6.30;;
26391;SDS011;14572;43.120;1.178;2022-10-31T00:43:55;9.60;;;6.05;;
26391;SDS011;14572;43.120;1.178;2022-10-31T00:46:24;10.70;;;5.95;;
26391;SDS011;14572;43.120;1.178;2022-10-31T00:48:51;10.80;;;6.60;;
26391;SDS011;14572;43.120;1.178;2022-10-31T00:51:18;11.10;;;6.05;;
26391;SDS011;14572;43.120;1.178;2022-10-31T00:53:45;12.90;;;6.22;;
26391;SDS011;14572;43.120;1.178;2022-10-31T00:56:13;12.43;;;6.15;;
26391;SDS011;14572;43.120;1.178;2022-10-31T00:58:40;10.43;;;6.43;;
26391;SDS011;14572;43.120;1.178;2022-10-31T01:01:07;16.95;;;7.03;;
26391;SDS011;14572;43.120;1.178;2022-10-31T01:03:35;9.93;;;5.72;;
26391;SDS011;14572;43.120;1.178;2022-10-31T01:06:04;15.50;;;6.72;;
26391;SDS011;14572;43.120;1.178;2022-10-31T01:08:33;11.32;;;5.93;;
26391;SDS011;14572;43.120;1.178;2022-10-31T01:11:04;9.88;;;5.85;;
26391;SDS011;14572;43.120;1.178;2022-10-31T01:16:54;14.13;;;6.18;;
26391;SDS011;14572;43.120;1.178;2022-10-31T01:19:23;12.55;;;6.03;;
26391;SDS011;14572;43.120;1.178;2022-10-31T01:24:44;11.98;;;5.95;;
26391;SDS011;14572;43.120;1.178;2022-10-31T01:27:11;16.00;;;6.18;;
26391;SDS011;14572;43.120;1.178;2022-10-31T01:29:38;11.63;;;6.32;;
26391;SDS011;14572;43.120;1.178;2022-10-31T01:32:05;13.10;;;6.55;;
26391;SDS011;14572;43.120;1.178;2022-10-31T01:34:34;12.18;;;5.95;;
26391;SDS011;14572;43.120;1.178;2022-10-31T01:37:01;10.02;;;5.95;;
26391;SDS011;14572;43.120;1.178;2022-10-31T01:39:28;9.38;;;6.30;;
26391;SDS011;14572;43.120;1.178;2022-10-31T01:41:55;11.50;;;5.70;;
26391;SDS011;14572;43.120;1.178;2022-10-31T01:47:17;14.23;;;5.70;;
26391;SDS011;14572;43.120;1.178;2022-10-31T01:49:48;16.45;;;5.65;;
26391;SDS011;14572;43.120;1.178;2022-10-31T01:52:20;12.32;;;6.82;;
26391;SDS011;14572;43.120;1.178;2022-10-31T01:54:50;12.98;;;6.22;;
26391;SDS011;14572;43.120;1.178;2022-10-31T02:00:49;10.45;;;6.22;;
26391;SDS011;14572;43.120;1.178;2022-10-31T02:03:18;10.35;;;5.97;;
26391;SDS011;14572;43.120;1.178;2022-10-31T02:05:51;11.65;;;5.97;;
26391;SDS011;14572;43.120;1.178;2022-10-31T02:08:20;12.68;;;5.93;;
26391;SDS011;14572;43.120;1.178;2022-10-31T02:10:50;10.50;;;5.25;;
26391;SDS011;14572;43.120;1.178;2022-10-31T02:13:17;9.70;;;5.25;;
26391;SDS011;14572;43.120;1.178;2022-10-31T02:15:46;13.35;;;5.50;;
26391;SDS011;14572;43.120;1.178;2022-10-31T02:18:18;10.13;;;5.22;;
26391;SDS011;14572;43.120;1.178;2022-10-31T02:20:49;15.32;;;5.75;;
26391;SDS011;14572;43.120;1.178;2022-10-31T02:32:24;9.65;;;5.03;;
26391;SDS011;14572;43.120;1.178;2022-10-31T02:34:55;11.48;;;5.63;;
26391;SDS011;14572;43.120;1.178;2022-10-31T02:37:25;10.60;;;5.45;;
26391;SDS011;14572;43.120;1.178;2022-10-31T02:40:00;13.43;;;6.05;;
26391;SDS011;14572;43.120;1.178;2022-10-31T02:42:32;10.50;;;5.50;;
26391;SDS011;14572;43.120;1.178;2022-10-31T02:45:01;12.43;;;5.30;;
26391;SDS011;14572;43.120;1.178;2022-10-31T02:47:36;12.75;;;5.50;;
26391;SDS011;14572;43.120;1.178;2022-10-31T02:50:04;13.50;;;5.45;;
26391;SDS011;14572;43.120;1.178;2022-10-31T02:52:34;13.07;;;5.65;;
26391;SDS011;14572;43.120;1.178;2022-10-31T02:55:12;8.93;;;5.22;;
26391;SDS011;14572;43.120;1.178;2022-10-31T02:58:00;8.90;;;4.85;;
26391;SDS011;14572;43.120;1.178;2022-10-31T03:00:29;10.43;;;5.00;;
26391;SDS011;14572;43.120;1.178;2022-10-31T03:03:06;6.78;;;4.53;;
26391;SDS011;14572;43.120;1.178;2022-10-31T03:05:48;10.18;;;5.63;;
26391;SDS011;14572;43.120;1.178;2022-10-31T03:08:20;8.15;;;5.00;;
26391;SDS011;14572;43.120;1.178;2022-10-31T03:10:52;8.77;;;5.15;;
26391;SDS011;14572;43.120;1.178;2022-10-31T03:13:23;8.88;;;5.00;;
26391;SDS011;14572;43.120;1.178;2022-10-31T03:15:54;8.93;;;5.20;;
26391;SDS011;14572;43.120;1.178;2022-10-31T03:18:29;7.80;;;4.97;;
26391;SDS011;14572;43.120;1.178;2022-10-31T03:21:04;12.15;;;5.38;;
26391;SDS011;14572;43.120;1.178;2022-10-31T03:23:37;9.93;;;5.00;;
26391;SDS011;14572;43.120;1.178;2022-10-31T03:26:06;11.00;;;5.50;;
26391;SDS011;14572;43.120;1.178;2022-10-31T03:28:35;9.70;;;4.68;;
26391;SDS011;14572;43.120;1.178;2022-10-31T03:31:04;7.45;;;4.68;;
26391;SDS011;14572;43.120;1.178;2022-10-31T03:33:47;11.98;;;5.35;;
26391;SDS011;14572;43.120;1.178;2022-10-31T03:36:16;10.95;;;5.47;;
26391;SDS011;14572;43.120;1.178;2022-10-31T03:38:43;8.70;;;4.45;;
26391;SDS011;14572;43.120;1.178;2022-10-31T03:41:13;14.57;;;5.20;;
26391;SDS011;14572;43.120;1.178;2022-10-31T03:43:45;9.57;;;4.75;;
26391;SDS011;14572;43.120;1.178;2022-10-31T03:49:09;9.50;;;4.90;;
26391;SDS011;14572;43.120;1.178;2022-10-31T03:51:37;10.88;;;4.53;;
26391;SDS011;14572;43.120;1.178;2022-10-31T03:54:08;9.98;;;5.55;;
26391;SDS011;14572;43.120;1.178;2022-10-31T03:56:39;8.70;;;5.10;;
26391;SDS011;14572;43.120;1.178;2022-10-31T03:59:11;9.77;;;4.60;;
26391;SDS011;14572;43.120;1.178;2022-10-31T04:01:42;12.25;;;5.07;;
26391;SDS011;14572;43.120;1.178;2022-10-31T04:04:13;14.32;;;4.57;;
26391;SDS011;14572;43.120;1.178;2022-10-31T04:06:42;7.80;;;4.30;;
26391;SDS011;14572;43.120;1.178;2022-10-31T04:12:02;7.97;;;4.50;;
26391;SDS011;14572;43.120;1.178;2022-10-31T04:14:37;6.72;;;4.10;;
26391;SDS011;14572;43.120;1.178;2022-10-31T04:17:07;9.68;;;4.20;;
26391;SDS011;14572;43.120;1.178;2022-10-31T04:19:37;10.40;;;3.95;;
26391;SDS011;14572;43.120;1.178;2022-10-31T04:22:04;7.80;;;3.80;;
26391;SDS011;14572;43.120;1.178;2022-10-31T04:24:31;5.75;;;3.95;;
26391;SDS011;14572;43.120;1.178;2022-10-31T04:26:58;5.82;;;3.40;;
26391;SDS011;14572;43.120;1.178;2022-10-31T04:29:26;8.20;;;4.45;;
26391;SDS011;14572;43.120;1.178;2022-10-31T04:32:01;8.57;;;3.92;;
26391;SDS011;14572;43.120;1.178;2022-10-31T04:34:28;6.72;;;3.75;;
26391;SDS011;14572;43.120;1.178;2022-10-31T04:37:00;10.30;;;3.85;;
26391;SDS011;14572;43.120;1.178;2022-10-31T04:39:31;8.18;;;4.20;;
26391;SDS011;14572;43.120;1.178;2022-10-31T04:42:04;9.07;;;3.97;;
26391;SDS011;14572;43.120;1.178;2022-10-31T04:44:31;10.65;;;4.30;;
26391;SDS011;14572;43.120;1.178;2022-10-31T04:46:58;8.27;;;4.18;;
26391;SDS011;14572;43.120;1.178;2022-10-31T04:49:36;9.70;;;4.13;;
26391;SDS011;14572;43.120;1.178;2022-10-31T04:52:04;7.78;;;4.07;;
26391;SDS011;14572;43.120;1.178;2022-10-31T04:54:32;11.30;;;4.22;;
26391;SDS011;14572;43.120;1.178;2022-10-31T04:57:02;9.27;;;3.72;;
26391;SDS011;14572;43.120;1.178;2022-10-31T04:59:29;7.25;;;4.10;;
26391;SDS011;14572;43.120;1.178;2022-10-31T05:01:56;9.13;;;3.58;;
26391;SDS011;14572;43.120;1.178;2022-10-31T05:04:25;12.00;;;4.18;;
26391;SDS011;14572;43.120;1.178;2022-10-31T05:06:55;8.35;;;4.07;;
26391;SDS011;14572;43.120;1.178;2022-10-31T05:09:24;8.68;;;3.53;;
26391;SDS011;14572;43.120;1.178;2022-10-31T05:11:54;9.07;;;3.40;;
26391;SDS011;14572;43.120;1.178;2022-10-31T05:14:21;8.70;;;4.30;;
26391;SDS011;14572;43.120;1.178;2022-10-31T05:16:51;6.95;;;4.25;;
26391;SDS011;14572;43.120;1.178;2022-10-31T05:19:18;8.07;;;4.20;;
26391;SDS011;14572;43.120;1.178;2022-10-31T05:21:45;7.70;;;4.00;;
26391;SDS011;14572;43.120;1.178;2022-10-31T05:24:12;7.72;;;4.18;;
26391;SDS011;14572;43.120;1.178;2022-10-31T05:26:41;9.73;;;4.15;;
26391;SDS011;14572;43.120;1.178;2022-10-31T05:29:08;10.98;;;4.30;;
26391;SDS011;14572;43.120;1.178;2022-10-31T05:31:35;7.15;;;4.05;;
26391;SDS011;14572;43.120;1.178;2022-10-31T05:34:02;8.05;;;3.90;;
26391;SDS011;14572;43.120;1.178;2022-10-31T05:36:29;8.98;;;3.97;;
26391;SDS011;14572;43.120;1.178;2022-10-31T05:38:56;9.95;;;4.25;;
26391;SDS011;14572;43.120;1.178;2022-10-31T05:41:23;7.97;;;4.53;;
26391;SDS011;14572;43.120;1.178;2022-10-31T05:43:52;8.98;;;3.65;;
26391;SDS011;14572;43.120;1.178;2022-10-31T05:46:19;8.82;;;4.47;;
26391;SDS011;14572;43.120;1.178;2022-10-31T05:48:46;13.45;;;4.43;;
26391;SDS011;14572;43.120;1.178;2022-10-31T05:51:13;8.23;;;4.47;;
26391;SDS011;14572;43.120;1.178;2022-10-31T05:53:40;8.95;;;5.60;;
26391;SDS011;14572;43.120;1.178;2022-10-31T05:56:07;8.30;;;4.00;;
26391;SDS011;14572;43.120;1.178;2022-10-31T05:58:34;8.93;;;4.03;;
26391;SDS011;14572;43.120;1.178;2022-10-31T06:01:03;9.70;;;4.43;;
26391;SDS011;14572;43.120;1.178;2022-10-31T06:03:30;7.72;;;4.35;;
26391;SDS011;14572;43.120;1.178;2022-10-31T06:05:57;8.38;;;4.40;;
26391;SDS011;14572;43.120;1.178;2022-10-31T06:08:24;6.93;;;3.90;;
26391;SDS011;14572;43.120;1.178;2022-10-31T06:10:51;7.57;;;3.70;;
26391;SDS011;14572;43.120;1.178;2022-10-31T06:13:24;9.65;;;4.60;;
26391;SDS011;14572;43.120;1.178;2022-10-31T06:15:54;10.15;;;4.35;;
26391;SDS011;14572;43.120;1.178;2022-10-31T06:18:23;8.13;;;4.10;;
26391;SDS011;14572;43.120;1.178;2022-10-31T06:20:55;9.32;;;4.65;;
26391;SDS011;14572;43.120;1.178;2022-10-31T06:23:22;9.30;;;4.32;;
26391;SDS011;14572;43.120;1.178;2022-10-31T06:25:49;10.95;;;4.15;;
26391;SDS011;14572;43.120;1.178;2022-10-31T06:28:16;7.07;;;3.83;;
26391;SDS011;14572;43.120;1.178;2022-10-31T06:30:43;9.20;;;4.50;;
26391;SDS011;14572;43.120;1.178;2022-10-31T06:33:14;8.60;;;4.13;;
26391;SDS011;14572;43.120;1.178;2022-10-31T06:35:48;7.80;;;4.38;;
26391;SDS011;14572;43.120;1.178;2022-10-31T06:41:38;8.07;;;4.05;;
26391;SDS011;14572;43.120;1.178;2022-10-31T06:47:28;12.32;;;4.20;;
26391;SDS011;14572;43.120;1.178;2022-10-31T06:49:56;9.70;;;4.03;;
26391;SDS011;14572;43.120;1.178;2022-10-31T06:52:42;6.63;;;3.83;;
26391;SDS011;14572;43.120;1.178;2022-10-31T06:55:19;9.88;;;4.65;;
26391;SDS011;14572;43.120;1.178;2022-10-31T06:57:52;13.52;;;4.45;;
26391;SDS011;14572;43.120;1.178;2022-10-31T07:00:27;5.78;;;3.80;;
26391;SDS011;14572;43.120;1.178;2022-10-31T07:02:55;10.20;;;4.30;;
26391;SDS011;14572;43.120;1.178;2022-10-31T07:05:22;10.50;;;3.75;;
26391;SDS011;14572;43.120;1.178;2022-10-31T07:07:53;10.73;;;4.28;;
26391;SDS011;14572;43.120;1.178;2022-10-31T07:10:20;8.18;;;4.03;;
26391;SDS011;14572;43.120;1.178;2022-10-31T07:12:47;11.18;;;4.25;;
26391;SDS011;14572;43.120;1.178;2022-10-31T07:15:14;9.25;;;4.22;;
26391;SDS011;14572;43.120;1.178;2022-10-31T07:17:42;9.35;;;4.50;;
26391;SDS011;14572;43.120;1.178;2022-10-31T07:20:09;11.63;;;4.43;;
26391;SDS011;14572;43.120;1.178;2022-10-31T07:22:36;6.65;;;4.07;;
26391;SDS011;14572;43.120;1.178;2022-10-31T07:25:05;9.20;;;4.85;;
26391;SDS011;14572;43.120;1.178;2022-10-31T07:27:35;10.18;;;4.03;;
26391;SDS011;14572;43.120;1.178;2022-10-31T07:30:03;9.45;;;4.55;;
26391;SDS011;14572;43.120;1.178;2022-10-31T07:32:37;6.93;;;4.03;;
26391;SDS011;14572;43.120;1.178;2022-10-31T07:35:05;9.40;;;4.22;;
26391;SDS011;14572;43.120;1.178;2022-10-31T07:37:33;8.52;;;3.88;;
26391;SDS011;14572;43.120;1.178;2022-10-31T07:40:00;8.55;;;3.97;;
26391;SDS011;14572;43.120;1.178;2022-10-31T07:42:29;6.10;;;3.65;;
26391;SDS011;14572;43.120;1.178;2022-10-31T07:44:56;9.68;;;4.40;;
26391;SDS011;14572;43.120;1.178;2022-10-31T07:47:23;11.60;;;4.72;;
26391;SDS011;14572;43.120;1.178;2022-10-31T07:49:50;7.65;;;4.22;;
26391;SDS011;14572;43.120;1.178;2022-10-31T07:52:17;7.03;;;4.15;;
26391;SDS011;14572;43.120;1.178;2022-10-31T07:54:44;8.60;;;4.15;;
26391;SDS011;14572;43.120;1.178;2022-10-31T07:57:11;6.70;;;4.05;;
26391;SDS011;14572;43.120;1.178;2022-10-31T07:59:40;7.45;;;4.28;;
26391;SDS011;14572;43.120;1.178;2022-10-31T08:02:07;7.90;;;3.88;;
26391;SDS011;14572;43.120;1.178;2022-10-31T08:04:34;7.65;;;4.43;;
26391;SDS011;14572;43.120;1.178;2022-10-31T08:07:01;12.70;;;4.65;;
26391;SDS011;14572;43.120;1.178;2022-10-31T08:09:28;13.48;;;4.43;;
26391;SDS011;14572;43.120;1.178;2022-10-31T08:11:55;8.48;;;4.22;;
26391;SDS011;14572;43.120;1.178;2022-10-31T08:14:22;6.70;;;4.30;;
26391;SDS011;14572;43.120;1.178;2022-10-31T08:16:51;9.23;;;4.75;;
26391;SDS011;14572;43.120;1.178;2022-10-31T08:19:18;9.50;;;4.57;;
26391;SDS011;14572;43.120;1.178;2022-10-31T08:21:46;9.50;;;4.28;;
26391;SDS011;14572;43.120;1.178;2022-10-31T08:24:13;9.45;;;4.88;;
26391;SDS011;14572;43.120;1.178;2022-10-31T08:26:40;10.32;;;5.25;;
26391;SDS011;14572;43.120;1.178;2022-10-31T08:29:07;7.10;;;4.45;;
26391;SDS011;14572;43.120;1.178;2022-10-31T08:31:34;15.77;;;5.00;;
26391;SDS011;14572;43.120;1.178;2022-10-31T08:34:02;7.55;;;5.38;;
26391;SDS011;14572;43.120;1.178;2022-10-31T08:36:29;10.38;;;5.20;;
26391;SDS011;14572;43.120;1.178;2022-10-31T08:38:56;12.63;;;5.78;;
26391;SDS011;14572;43.120;1.178;2022-10-31T08:41:23;8.45;;;5.57;;
26391;SDS011;14572;43.120;1.178;2022-10-31T08:43:51;8.23;;;4.78;;
26391;SDS011;14572;43.120;1.178;2022-10-31T08:46:18;14.10;;;5.38;;
26391;SDS011;14572;43.120;1.178;2022-10-31T08:48:47;7.45;;;4.78;;
26391;SDS011;14572;43.120;1.178;2022-10-31T08:51:15;11.10;;;4.90;;
26391;SDS011;14572;43.120;1.178;2022-10-31T08:53:42;11.73;;;4.95;;
26391;SDS011;14572;43.120;1.178;2022-10-31T08:56:09;10.68;;;5.15;;
26391;SDS011;14572;43.120;1.178;2022-10-31T08:58:36;11.10;;;5.40;;
26391;SDS011;14572;43.120;1.178;2022-10-31T09:01:04;9.57;;;4.88;;
26391;SDS011;14572;43.120;1.178;2022-10-31T09:03:31;11.32;;;5.50;;
26391;SDS011;14572;43.120;1.178;2022-10-31T09:05:59;9.85;;;4.85;;
26391;SDS011;14572;43.120;1.178;2022-10-31T09:08:30;8.88;;;4.78;;
26391;SDS011;14572;43.120;1.178;2022-10-31T09:10:58;9.55;;;4.95;;
26391;SDS011;14572;43.120;1.178;2022-10-31T09:13:25;11.80;;;4.75;;
26391;SDS011;14572;43.120;1.178;2022-10-31T09:15:52;11.00;;;4.68;;
26391;SDS011;14572;43.120;1.178;2022-10-31T09:18:20;13.38;;;4.43;;
26391;SDS011;14572;43.120;1.178;2022-10-31T09:20:48;10.70;;;4.30;;
26391;SDS011;14572;43.120;1.178;2022-10-31T09:23:16;15.43;;;4.13;;
26391;SDS011;14572;43.120;1.178;2022-10-31T09:25:45;10.38;;;4.47;;
26391;SDS011;14572;43.120;1.178;2022-10-31T09:28:16;9.55;;;3.72;;
26391;SDS011;14572;43.120;1.178;2022-10-31T09:30:45;8.93;;;4.10;;
26391;SDS011;14572;43.120;1.178;2022-10-31T09:33:13;15.10;;;4.10;;
26391;SDS011;14572;43.120;1.178;2022-10-31T09:35:40;11.57;;;4.28;;
26391;SDS011;14572;43.120;1.178;2022-10-31T09:38:09;8.98;;;4.15;;
26391;SDS011;14572;43.120;1.178;2022-10-31T09:40:38;7.13;;;4.07;;
26391;SDS011;14572;43.120;1.178;2022-10-31T09:43:11;9.15;;;4.10;;
26391;SDS011;14572;43.120;1.178;2022-10-31T09:45:43;11.38;;;3.88;;
26391;SDS011;14572;43.120;1.178;2022-10-31T09:48:21;10.13;;;3.85;;
26391;SDS011;14572;43.120;1.178;2022-10-31T09:50:54;11.95;;;3.72;;
26391;SDS011;14572;43.120;1.178;2022-10-31T09:53:27;7.55;;;4.00;;
26391;SDS011;14572;43.120;1.178;2022-10-31T09:55:59;10.40;;;4.03;;
26391;SDS011;14572;43.120;1.178;2022-10-31T09:58:28;9.23;;;3.63;;
26391;SDS011;14572;43.120;1.178;2022-10-31T10:00:56;11.25;;;3.50;;
26391;SDS011;14572;43.120;1.178;2022-10-31T10:03:28;10.93;;;3.80;;
26391;SDS011;14572;43.120;1.178;2022-10-31T10:05:59;9.40;;;3.65;;
26391;SDS011;14572;43.120;1.178;2022-10-31T10:08:31;11.32;;;3.20;;
26391;SDS011;14572;43.120;1.178;2022-10-31T10:11:00;15.43;;;4.15;;
26391;SDS011;14572;43.120;1.178;2022-10-31T10:13:51;11.20;;;3.65;;
26391;SDS011;14572;43.120;1.178;2022-10-31T10:16:28;10.55;;;3.90;;
26391;SDS011;14572;43.120;1.178;2022-10-31T10:19:12;20.45;;;4.65;;
26391;SDS011;14572;43.120;1.178;2022-10-31T10:21:49;9.60;;;3.78;;
26391;SDS011;14572;43.120;1.178;2022-10-31T10:24:30;12.00;;;4.00;;
26391;SDS011;14572;43.120;1.178;2022-10-31T10:27:05;9.93;;;3.30;;
26391;SDS011;14572;43.120;1.178;2022-10-31T10:29:42;8.55;;;3.53;;
26391;SDS011;14572;43.120;1.178;2022-10-31T10:32:17;8.73;;;3.70;;
26391;SDS011;14572;43.120;1.178;2022-10-31T10:34:49;11.48;;;4.18;;
26391;SDS011;14572;43.120;1.178;2022-10-31T10:37:22;10.93;;;3.78;;
26391;SDS011;14572;43.120;1.178;2022-10-31T10:39:52;9.43;;;3.55;;
26391;SDS011;14572;43.120;1.178;2022-10-31T10:42:21;11.15;;;3.85;;
26391;SDS011;14572;43.120;1.178;2022-10-31T10:45:13;9.65;;;3.97;;
26391;SDS011;14572;43.120;1.178;2022-10-31T10:48:01;8.35;;;3.85;;
26391;SDS011;14572;43.120;1.178;2022-10-31T10:50:44;11.15;;;3.63;;
26391;SDS011;14572;43.120;1.178;2022-10-31T10:53:21;13.50;;;3.70;;
26391;SDS011;14572;43.120;1.178;2022-10-31T10:56:02;7.82;;;3.47;;
26391;SDS011;14572;43.120;1.178;2022-10-31T10:58:37;5.72;;;3.03;;
26391;SDS011;14572;43.120;1.178;2022-10-31T11:01:10;12.93;;;3.92;;
26391;SDS011;14572;43.120;1.178;2022-10-31T11:03:39;9.13;;;3.25;;
26391;SDS011;14572;43.120;1.178;2022-10-31T11:06:16;7.57;;;3.90;;
26391;SDS011;14572;43.120;1.178;2022-10-31T11:08:47;7.40;;;3.58;;
26391;SDS011;14572;43.120;1.178;2022-10-31T11:11:19;11.80;;;3.85;;
26391;SDS011;14572;43.120;1.178;2022-10-31T11:13:52;14.15;;;3.97;;
26391;SDS011;14572;43.120;1.178;2022-10-31T11:16:37;9.52;;;3.83;;
26391;SDS011;14572;43.120;1.178;2022-10-31T11:19:06;10.43;;;3.55;;
26391;SDS011;14572;43.120;1.178;2022-10-31T11:21:41;7.63;;;3.42;;
26391;SDS011;14572;43.120;1.178;2022-10-31T11:24:12;7.40;;;3.58;;
26391;SDS011;14572;43.120;1.178;2022-10-31T11:26:42;8.10;;;3.22;;
26391;SDS011;14572;43.120;1.178;2022-10-31T11:29:14;10.82;;;3.33;;
26391;SDS011;14572;43.120;1.178;2022-10-31T11:31:44;8.93;;;3.63;;
26391;SDS011;14572;43.120;1.178;2022-10-31T11:34:15;8.65;;;2.85;;
26391;SDS011;14572;43.120;1.178;2022-10-31T11:36:45;10.10;;;2.85;;
26391;SDS011;14572;43.120;1.178;2022-10-31T11:39:15;6.78;;;2.90;;
26391;SDS011;14572;43.120;1.178;2022-10-31T11:41:44;6.32;;;2.75;;
26391;SDS011;14572;43.120;1.178;2022-10-31T11:44:13;10.13;;;3.10;;
26391;SDS011;14572;43.120;1.178;2022-10-31T11:46:46;8.45;;;2.63;;
26391;SDS011;14572;43.120;1.178;2022-10-31T11:49:15;7.90;;;3.17;;
26391;SDS011;14572;43.120;1.178;2022-10-31T11:51:47;8.55;;;3.00;;
26391;SDS011;14572;43.120;1.178;2022-10-31T11:54:18;8.30;;;3.08;;
26391;SDS011;14572;43.120;1.178;2022-10-31T11:56:48;8.38;;;3.00;;
26391;SDS011;14572;43.120;1.178;2022-10-31T11:59:17;7.70;;;2.72;;
26391;SDS011;14572;43.120;1.178;2022-10-31T12:01:50;8.52;;;2.40;;
26391;SDS011;14572;43.120;1.178;2022-10-31T12:04:18;8.20;;;2.83;;
26391;SDS011;14572;43.120;1.178;2022-10-31T12:06:45;7.55;;;2.70;;
26391;SDS011;14572;43.120;1.178;2022-10-31T12:09:18;7.22;;;3.10;;
26391;SDS011;14572;43.120;1.178;2022-10-31T12:11:51;8.15;;;2.80;;
26391;SDS011;14572;43.120;1.178;2022-10-31T12:14:28;6.47;;;2.65;;
26391;SDS011;14572;43.120;1.178;2022-10-31T12:17:03;6.40;;;2.65;;
26391;SDS011;14572;43.120;1.178;2022-10-31T12:19:36;9.77;;;2.85;;
26391;SDS011;14572;43.120;1.178;2022-10-31T12:22:09;12.15;;;3.40;;
26391;SDS011;14572;43.120;1.178;2022-10-31T12:24:45;10.13;;;3.63;;
26391;SDS011;14572;43.120;1.178;2022-10-31T12:27:25;4.63;;;2.20;;
26391;SDS011;14572;43.120;1.178;2022-10-31T12:30:02;7.88;;;2.63;;
26391;SDS011;14572;43.120;1.178;2022-10-31T12:32:52;12.35;;;3.22;;
26391;SDS011;14572;43.120;1.178;2022-10-31T12:35:33;9.43;;;2.85;;
26391;SDS011;14572;43.120;1.178;2022-10-31T12:38:17;7.93;;;2.75;;
26391;SDS011;14572;43.120;1.178;2022-10-31T12:40:59;8.20;;;3.08;;
26391;SDS011;14572;43.120;1.178;2022-10-31T12:43:36;7.72;;;3.03;;
26391;SDS011;14572;43.120;1.178;2022-10-31T12:46:10;9.68;;;2.67;;
26391;SDS011;14572;43.120;1.178;2022-10-31T12:51:50;6.72;;;2.47;;
26391;SDS011;14572;43.120;1.178;2022-10-31T12:54:29;7.13;;;2.33;;
26391;SDS011;14572;43.120;1.178;2022-10-31T12:57:07;9.27;;;2.90;;
26391;SDS011;14572;43.120;1.178;2022-10-31T12:59:40;8.10;;;2.97;;
26391;SDS011;14572;43.120;1.178;2022-10-31T13:02:13;6.68;;;2.90;;
26391;SDS011;14572;43.120;1.178;2022-10-31T13:04:43;9.27;;;2.90;;
26391;SDS011;14572;43.120;1.178;2022-10-31T13:07:17;8.23;;;3.30;;
26391;SDS011;14572;43.120;1.178;2022-10-31T13:09:48;10.05;;;2.75;;
26391;SDS011;14572;43.120;1.178;2022-10-31T13:12:20;7.00;;;2.97;;
26391;SDS011;14572;43.120;1.178;2022-10-31T13:14:49;9.07;;;2.90;;
26391;SDS011;14572;43.120;1.178;2022-10-31T13:17:21;6.90;;;3.17;;
26391;SDS011;14572;43.120;1.178;2022-10-31T13:19:52;6.35;;;2.95;;
26391;SDS011;14572;43.120;1.178;2022-10-31T13:22:25;5.65;;;2.75;;
26391;SDS011;14572;43.120;1.178;2022-10-31T13:24:57;5.47;;;2.90;;
26391;SDS011;14572;43.120;1.178;2022-10-31T13:27:28;6.85;;;2.70;;
26391;SDS011;14572;43.120;1.178;2022-10-31T13:29:59;8.68;;;3.15;;
26391;SDS011;14572;43.120;1.178;2022-10-31T13:32:30;8.52;;;3.58;;
26391;SDS011;14572;43.120;1.178;2022-10-31T13:35:05;7.38;;;2.92;;
26391;SDS011;14572;43.120;1.178;2022-10-31T13:37:37;7.55;;;3.55;;
26391;SDS011;14572;43.120;1.178;2022-10-31T13:40:11;10.07;;;2.88;;
26391;SDS011;14572;43.120;1.178;2022-10-31T13:42:51;9.68;;;3.55;;
26391;SDS011;14572;43.120;1.178;2022-10-31T13:45:22;5.30;;;2.67;;
26391;SDS011;14572;43.120;1.178;2022-10-31T13:47:57;6.93;;;3.50;;
26391;SDS011;14572;43.120;1.178;2022-10-31T13:50:26;5.93;;;2.88;;
26391;SDS011;14572;43.120;1.178;2022-10-31T13:53:08;6.85;;;3.05;;
26391;SDS011;14572;43.120;1.178;2022-10-31T13:55:38;7.07;;;3.45;;
26391;SDS011;14572;43.120;1.178;2022-10-31T13:58:19;7.35;;;3.20;;
26391;SDS011;14572;43.120;1.178;2022-10-31T14:03:46;7.90;;;3.40;;
26391;SDS011;14572;43.120;1.178;2022-10-31T14:06:14;15.20;;;3.97;;
26391;SDS011;14572;43.120;1.178;2022-10-31T14:08:46;8.20;;;3.25;;
26391;SDS011;14572;43.120;1.178;2022-10-31T14:11:18;11.13;;;4.05;;
26391;SDS011;14572;43.120;1.178;2022-10-31T14:13:47;12.00;;;4.00;;
26391;SDS011;14572;43.120;1.178;2022-10-31T14:16:17;8.50;;;3.70;;
26391;SDS011;14572;43.120;1.178;2022-10-31T14:18:47;11.10;;;3.47;;
26391;SDS011;14572;43.120;1.178;2022-10-31T14:21:16;10.00;;;4.10;;
26391;SDS011;14572;43.120;1.178;2022-10-31T14:23:56;12.80;;;3.85;;
26391;SDS011;14572;43.120;1.178;2022-10-31T14:26:30;7.10;;;3.15;;
26391;SDS011;14572;43.120;1.178;2022-10-31T14:29:00;11.10;;;3.40;;
26391;SDS011;14572;43.120;1.178;2022-10-31T14:31:30;8.82;;;3.53;;
26391;SDS011;14572;43.120;1.178;2022-10-31T14:34:00;7.25;;;3.60;;
26391;SDS011;14572;43.120;1.178;2022-10-31T14:36:31;7.70;;;3.78;;
26391;SDS011;14572;43.120;1.178;2022-10-31T14:39:06;8.57;;;4.25;;
26391;SDS011;14572;43.120;1.178;2022-10-31T14:41:48;5.90;;;3.58;;
26391;SDS011;14572;43.120;1.178;2022-10-31T14:44:31;13.15;;;3.65;;
26391;SDS011;14572;43.120;1.178;2022-10-31T14:47:09;10.35;;;3.72;;
26391;SDS011;14572;43.120;1.178;2022-10-31T14:49:55;7.53;;;3.38;;
26391;SDS011;14572;43.120;1.178;2022-10-31T14:52:45;13.40;;;4.05;;
26391;SDS011;14572;43.120;1.178;2022-10-31T14:55:16;8.00;;;3.67;;
26391;SDS011;14572;43.120;1.178;2022-10-31T14:57:45;15.20;;;4.30;;
26391;SDS011;14572;43.120;1.178;2022-10-31T15:00:16;8.98;;;4.03;;
26391;SDS011;14572;43.120;1.178;2022-10-31T15:02:46;7.22;;;3.88;;
26391;SDS011;14572;43.120;1.178;2022-10-31T15:05:20;9.05;;;3.80;;
26391;SDS011;14572;43.120;1.178;2022-10-31T15:07:48;11.93;;;4.43;;
26391;SDS011;14572;43.120;1.178;2022-10-31T15:10:22;11.82;;;4.40;;
26391;SDS011;14572;43.120;1.178;2022-10-31T15:12:51;7.07;;;3.90;;
26391;SDS011;14572;43.120;1.178;2022-10-31T15:15:19;7.90;;;3.67;;
26391;SDS011;14572;43.120;1.178;2022-10-31T15:17:48;9.57;;;4.40;;
26391;SDS011;14572;43.120;1.178;2022-10-31T15:20:17;9.65;;;4.30;;
26391;SDS011;14572;43.120;1.178;2022-10-31T15:22:46;9.07;;;4.38;;
26391;SDS011;14572;43.120;1.178;2022-10-31T15:25:16;7.50;;;4.57;;
26391;SDS011;14572;43.120;1.178;2022-10-31T15:27:46;12.80;;;4.20;;
26391;SDS011;14572;43.120;1.178;2022-10-31T15:30:16;9.82;;;4.28;;
26391;SDS011;14572;43.120;1.178;2022-10-31T15:32:45;8.65;;;3.83;;
26391;SDS011;14572;43.120;1.178;2022-10-31T15:35:18;10.10;;;4.50;;
26391;SDS011;14572;43.120;1.178;2022-10-31T15:37:47;8.70;;;4.07;;
26391;SDS011;14572;43.120;1.178;2022-10-31T15:40:15;9.80;;;4.65;;
26391;SDS011;14572;43.120;1.178;2022-10-31T15:42:43;7.82;;;4.72;;
26391;SDS011;14572;43.120;1.178;2022-10-31T15:45:18;9.73;;;4.35;;